Time;durP1;ratioP1;P1;durP2;ratioP2;P2;SDS_P1;SDS_P2;PMS_P1;PMS_P2;Temp;Humidity;BMP_temperature;BMP_pressure;BME280_temperature;BME280_humidity;BME280_pressure;Samples;Min_cycle;Max_cycle;Signal;HPM_P1;HPM_P2
2023/09/15 00:00:57;;;;;;;1.20;0.98;;;;;;;;;;5072651;28;20051;-71
2023/09/15 00:03:23;;;;;;;2.17;1.33;;;;;;;;;;5072431;28;20021;-71
2023/09/15 00:05:48;;;;;;;3.75;2.25;;;;;;;;;;5072400;28;20094;-70
2023/09/15 00:08:14;;;;;;;0.20;0.20;;;;;;;;;;5054451;28;20472;-71
2023/09/15 00:10:40;;;;;;;0.50;0.50;;;;;;;;;;5072154;28;20115;-69
2023/09/15 00:13:06;;;;;;;1.48;1.38;;;;;;;;;;5072280;28;20122;-69
2023/09/15 00:15:32;;;;;;;0.30;0.30;;;;;;;;;;5072103;28;20067;-72
2023/09/15 00:17:58;;;;;;;10.52;1.83;;;;;;;;;;5072431;28;20033;-70
2023/09/15 00:20:25;;;;;;;0.90;0.75;;;;;;;;;;5072196;28;20380;-71
2023/09/15 00:22:52;;;;;;;0.10;0.10;;;;;;;;;;5072266;28;20036;-71
2023/09/15 00:25:27;;;;;;;0.52;0.52;;;;;;;;;;5072108;28;20041;-71
2023/09/15 00:27:54;;;;;;;0.20;0.20;;;;;;;;;;5072202;28;20117;-71
2023/09/15 00:30:21;;;;;;;3.00;1.98;;;;;;;;;;5072022;28;20381;-71
2023/09/15 00:32:48;;;;;;;0.50;0.47;;;;;;;;;;5072213;28;20036;-71
2023/09/15 00:35:16;;;;;;;0.20;0.20;;;;;;;;;;5071968;28;20082;-72
2023/09/15 00:37:43;;;;;;;0.20;0.20;;;;;;;;;;5054182;28;20074;-71
2023/09/15 00:40:10;;;;;;;0.32;0.32;;;;;;;;;;5071910;28;20500;-70
2023/09/15 00:42:41;;;;;;;0.30;0.30;;;;;;;;;;5072069;28;20032;-71
2023/09/15 00:45:09;;;;;;;0.20;0.20;;;;;;;;;;5071912;28;20040;-70
2023/09/15 00:47:34;;;;;;;0.20;0.20;;;;;;;;;;5071996;28;20117;-70
2023/09/15 00:50:05;;;;;;;0.30;0.30;;;;;;;;;;5072516;28;20079;-69
2023/09/15 00:52:33;;;;;;;0.75;0.63;;;;;;;;;;5075324;28;20090;-70
2023/09/15 00:54:59;;;;;;;0.20;0.20;;;;;;;;;;5075661;28;20040;-69
2023/09/15 00:57:25;;;;;;;0.20;0.20;;;;;;;;;;5075367;28;20028;-70
2023/09/15 00:59:51;;;;;;;0.20;0.20;;;;;;;;;;5075292;28;20043;-69
2023/09/15 01:02:17;;;;;;;0.20;0.20;;;;;;;;;;5075402;28;20017;-71
2023/09/15 01:04:43;;;;;;;0.30;0.30;;;;;;;;;;5075243;28;20036;-70
2023/09/15 01:07:09;;;;;;;0.30;0.30;;;;;;;;;;5075023;28;20048;-69
2023/09/15 01:09:35;;;;;;;0.20;0.20;;;;;;;;;;5075140;28;20127;-70
2023/09/15 01:12:01;;;;;;;0.95;0.80;;;;;;;;;;5075315;28;20476;-69
2023/09/15 01:14:27;;;;;;;2.90;1.70;;;;;;;;;;5074833;28;20039;-70
2023/09/15 01:16:58;;;;;;;0.20;0.20;;;;;;;;;;5057063;28;20388;-70
2023/09/15 01:19:24;;;;;;;0.40;0.40;;;;;;;;;;5075064;28;20070;-71
2023/09/15 01:21:56;;;;;;;0.20;0.20;;;;;;;;;;5074767;28;20042;-72
2023/09/15 01:24:30;;;;;;;0.20;0.20;;;;;;;;;;5074808;28;20044;-72
2023/09/15 01:27:12;;;;;;;0.20;0.20;;;;;;;;;;5074953;28;20469;-71
2023/09/15 01:29:39;;;;;;;0.20;0.20;;;;;;;;;;5074841;28;20115;-71
2023/09/15 01:32:09;;;;;;;0.20;0.20;;;;;;;;;;5074632;28;20464;-71
2023/09/15 01:34:35;;;;;;;0.20;0.20;;;;;;;;;;5074693;28;20107;-71
2023/09/15 01:37:01;;;;;;;0.30;0.30;;;;;;;;;;5056317;28;20034;-70
2023/09/15 01:39:30;;;;;;;0.20;0.20;;;;;;;;;;5074120;28;20109;-70
2023/09/15 01:41:59;;;;;;;1.23;1.15;;;;;;;;;;5055509;28;20036;-72
2023/09/15 01:44:27;;;;;;;0.20;0.20;;;;;;;;;;5074343;28;20044;-70
2023/09/15 01:46:53;;;;;;;0.20;0.20;;;;;;;;;;5074200;28;20112;-71
2023/09/15 01:49:19;;;;;;;0.20;0.20;;;;;;;;;;5074500;28;20028;-70
2023/09/15 01:51:48;;;;;;;0.20;0.20;;;;;;;;;;5074548;28;20101;-71
2023/09/15 01:54:14;;;;;;;0.20;0.20;;;;;;;;;;5074591;28;20028;-70
2023/09/15 01:56:40;;;;;;;0.22;0.22;;;;;;;;;;5074475;28;20041;-70
2023/09/15 01:59:06;;;;;;;0.20;0.20;;;;;;;;;;5056247;28;20380;-71
2023/09/15 02:01:31;;;;;;;0.20;0.20;;;;;;;;;;5060430;28;20037;-70
2023/09/15 02:03:57;;;;;;;0.22;0.22;;;;;;;;;;5054288;28;20037;-71
2023/09/15 02:06:22;;;;;;;0.20;0.20;;;;;;;;;;5054292;28;20029;-70
2023/09/15 02:08:48;;;;;;;0.20;0.20;;;;;;;;;;5054123;28;20033;-69
2023/09/15 02:11:14;;;;;;;0.20;0.20;;;;;;;;;;5053286;28;20076;-70
2023/09/15 02:13:40;;;;;;;0.20;0.20;;;;;;;;;;5036087;28;20025;-69
2023/09/15 02:16:06;;;;;;;0.20;0.20;;;;;;;;;;5035954;28;20094;-70
2023/09/15 02:18:32;;;;;;;0.17;0.17;;;;;;;;;;5054189;28;20485;-70
2023/09/15 02:20:57;;;;;;;0.10;0.10;;;;;;;;;;5053687;28;20098;-69
2023/09/15 02:23:23;;;;;;;0.20;0.20;;;;;;;;;;5054015;28;20040;-69
2023/09/15 02:25:49;;;;;;;0.20;0.20;;;;;;;;;;5035332;28;20044;-69
2023/09/15 02:28:15;;;;;;;0.20;0.20;;;;;;;;;;5035268;28;20098;-70
2023/09/15 02:30:41;;;;;;;0.75;0.75;;;;;;;;;;5052569;28;20082;-70
2023/09/15 02:33:06;;;;;;;0.20;0.20;;;;;;;;;;5035838;28;20504;-70
2023/09/15 02:35:32;;;;;;;0.20;0.20;;;;;;;;;;5053869;28;20468;-71
2023/09/15 02:37:58;;;;;;;0.20;0.20;;;;;;;;;;5073968;28;20503;-70
2023/09/15 02:40:23;;;;;;;0.20;0.20;;;;;;;;;;5072955;28;20394;-70
2023/09/15 02:42:49;;;;;;;0.20;0.20;;;;;;;;;;5038985;28;20497;-70
2023/09/15 02:45:15;;;;;;;0.20;0.20;;;;;;;;;;5073882;28;20082;-70
2023/09/15 02:47:41;;;;;;;0.20;0.20;;;;;;;;;;5072544;28;20032;-70
2023/09/15 02:50:07;;;;;;;0.20;0.20;;;;;;;;;;5055557;28;20039;-71
2023/09/15 02:52:35;;;;;;;0.20;0.20;;;;;;;;;;5073122;28;20044;-72
2023/09/15 02:55:04;;;;;;;0.20;0.20;;;;;;;;;;5055453;28;20024;-71
2023/09/15 02:57:29;;;;;;;0.20;0.20;;;;;;;;;;5072885;28;20040;-72
2023/09/15 02:59:55;;;;;;;0.20;0.20;;;;;;;;;;5038676;28;20082;-71
2023/09/15 03:02:21;;;;;;;0.20;0.20;;;;;;;;;;5070218;28;20103;-76
2023/09/15 03:04:47;;;;;;;0.20;0.20;;;;;;;;;;5069596;28;20071;-70
2023/09/15 03:07:13;;;;;;;0.20;0.20;;;;;;;;;;5069420;28;20028;-70
2023/09/15 03:09:39;;;;;;;0.20;0.20;;;;;;;;;;5051299;28;20039;-71
2023/09/15 03:12:04;;;;;;;0.20;0.20;;;;;;;;;;5069215;28;20033;-72
2023/09/15 03:14:30;;;;;;;0.20;0.20;;;;;;;;;;5068090;28;20036;-70
2023/09/15 03:16:56;;;;;;;0.20;0.20;;;;;;;;;;5050171;28;20139;-70
2023/09/15 03:19:22;;;;;;;0.20;0.20;;;;;;;;;;5034345;28;20029;-70
2023/09/15 03:21:47;;;;;;;0.20;0.20;;;;;;;;;;5069144;28;20036;-70
2023/09/15 03:24:14;;;;;;;0.20;0.20;;;;;;;;;;5050848;28;20052;-72
2023/09/15 03:26:40;;;;;;;0.20;0.20;;;;;;;;;;5069197;28;20029;-71
2023/09/15 03:29:06;;;;;;;0.20;0.20;;;;;;;;;;5069198;28;20055;-71
2023/09/15 03:31:32;;;;;;;0.20;0.20;;;;;;;;;;5050821;28;20103;-71
2023/09/15 03:33:58;;;;;;;0.28;0.28;;;;;;;;;;5052340;28;20032;-71
2023/09/15 03:36:26;;;;;;;0.20;0.20;;;;;;;;;;5053351;28;20029;-70
2023/09/15 03:38:52;;;;;;;0.20;0.20;;;;;;;;;;5052933;28;20459;-73
2023/09/15 03:41:20;;;;;;;0.20;0.20;;;;;;;;;;5069236;28;20043;-72
2023/09/15 03:43:45;;;;;;;0.13;0.13;;;;;;;;;;5068928;28;20032;-71
2023/09/15 03:46:11;;;;;;;0.20;0.20;;;;;;;;;;5068883;28;20464;-70
2023/09/15 03:48:37;;;;;;;0.10;0.10;;;;;;;;;;5067578;28;20123;-72
2023/09/15 03:51:03;;;;;;;0.20;0.20;;;;;;;;;;5068884;28;20075;-71
2023/09/15 03:53:28;;;;;;;0.10;0.10;;;;;;;;;;5068729;28;20476;-71
2023/09/15 03:55:54;;;;;;;0.20;0.20;;;;;;;;;;5068469;28;20024;-76
2023/09/15 03:58:20;;;;;;;0.20;0.20;;;;;;;;;;5051081;28;20064;-71
2023/09/15 04:00:45;;;;;;;0.20;0.20;;;;;;;;;;5034150;28;20054;-71
2023/09/15 04:03:11;;;;;;;0.10;0.10;;;;;;;;;;5050440;28;20059;-72
2023/09/15 04:05:38;;;;;;;0.10;0.10;;;;;;;;;;5068691;28;20448;-70
2023/09/15 04:08:03;;;;;;;0.20;0.20;;;;;;;;;;5068882;28;20043;-71
2023/09/15 04:10:29;;;;;;;0.38;0.38;;;;;;;;;;5068434;28;20036;-71
2023/09/15 04:12:55;;;;;;;0.25;0.25;;;;;;;;;;5068318;28;20025;-71
2023/09/15 04:15:20;;;;;;;0.20;0.20;;;;;;;;;;5050565;28;20441;-69
2023/09/15 04:17:46;;;;;;;0.20;0.20;;;;;;;;;;5068622;28;20032;-69
2023/09/15 04:20:12;;;;;;;0.20;0.20;;;;;;;;;;5068441;28;20507;-70
2023/09/15 04:22:38;;;;;;;0.20;0.20;;;;;;;;;;5050690;28;20044;-70
2023/09/15 04:25:05;;;;;;;0.20;0.20;;;;;;;;;;5051012;28;20609;-70
2023/09/15 04:27:34;;;;;;;0.20;0.20;;;;;;;;;;5070529;28;20149;-70
2023/09/15 04:30:00;;;;;;;;;;;;;;;;;;5036667;28;20068;-71
2023/09/15 04:32:33;;;;;;;0.20;0.20;;;;;;;;;;5033446;28;19962;-76
2023/09/15 04:35:00;;;;;;;0.10;0.10;;;;;;;;;;5062310;28;20051;-70
2023/09/15 04:37:26;;;;;;;0.10;0.10;;;;;;;;;;5053236;28;20032;-72
2023/09/15 04:39:54;;;;;;;0.20;0.20;;;;;;;;;;5070019;28;20025;-72
2023/09/15 04:42:20;;;;;;;0.20;0.20;;;;;;;;;;5066693;28;20033;-71
2023/09/15 04:44:45;;;;;;;0.20;0.20;;;;;;;;;;5059178;28;20067;-72
2023/09/15 04:47:28;;;;;;;0.20;0.20;;;;;;;;;;5051570;28;20481;-72
2023/09/15 04:49:55;;;;;;;0.20;0.20;;;;;;;;;;5045116;28;20035;-78
2023/09/15 04:52:20;;;;;;;0.20;0.20;;;;;;;;;;5069640;28;20029;-75
2023/09/15 04:54:46;;;;;;;0.20;0.20;;;;;;;;;;5053584;28;20024;-72
2023/09/15 04:57:12;;;;;;;0.20;0.20;;;;;;;;;;5053124;28;20085;-71
2023/09/15 04:59:38;;;;;;;0.20;0.20;;;;;;;;;;5052895;28;20044;-74
2023/09/15 05:02:06;;;;;;;0.20;0.20;;;;;;;;;;5047690;28;20033;-74
2023/09/15 05:04:34;;;;;;;0.20;0.20;;;;;;;;;;5052867;28;20041;-71
2023/09/15 05:07:00;;;;;;;0.20;0.20;;;;;;;;;;5051522;28;20055;-69
2023/09/15 05:09:26;;;;;;;0.20;0.20;;;;;;;;;;5053260;28;20059;-70
2023/09/15 05:11:53;;;;;;;0.20;0.20;;;;;;;;;;5066104;28;20020;-71
2023/09/15 05:14:18;;;;;;;0.20;0.20;;;;;;;;;;5066313;28;20033;-74
2023/09/15 05:16:44;;;;;;;0.20;0.20;;;;;;;;;;5059080;28;20120;-77
2023/09/15 05:19:10;;;;;;;0.20;0.20;;;;;;;;;;5032684;28;20049;-77
2023/09/15 05:21:35;;;;;;;0.20;0.20;;;;;;;;;;5062981;28;20020;-74
2023/09/15 05:24:02;;;;;;;0.20;0.20;;;;;;;;;;5050558;28;20377;-74
2023/09/15 05:26:28;;;;;;;0.20;0.20;;;;;;;;;;5052173;28;20078;-73
2023/09/15 05:28:55;;;;;;;0.20;0.20;;;;;;;;;;5051604;28;20036;-74
2023/09/15 05:31:25;;;;;;;0.20;0.20;;;;;;;;;;5054673;28;20036;-75
2023/09/15 05:33:52;;;;;;;0.20;0.20;;;;;;;;;;5051550;28;20025;-75
2023/09/15 05:36:18;;;;;;;0.20;0.20;;;;;;;;;;5032286;28;20029;-74
2023/09/15 05:38:45;;;;;;;0.15;0.15;;;;;;;;;;5050744;28;20043;-75
2023/09/15 05:41:11;;;;;;;0.20;0.20;;;;;;;;;;5068937;28;20035;-74
2023/09/15 05:43:36;;;;;;;0.20;0.20;;;;;;;;;;5061094;28;20055;-73
2023/09/15 05:46:02;;;;;;;0.20;0.20;;;;;;;;;;5065244;28;20056;-74
2023/09/15 05:48:27;;;;;;;0.65;0.65;;;;;;;;;;5050148;28;20032;-75
2023/09/15 05:50:53;;;;;;;0.45;0.45;;;;;;;;;;5067961;28;20028;-74
2023/09/15 05:53:19;;;;;;;1.17;1.08;;;;;;;;;;5059580;28;20032;-75
2023/09/15 05:55:44;;;;;;;0.75;0.75;;;;;;;;;;5062668;28;20262;-74
2023/09/15 05:58:10;;;;;;;0.20;0.20;;;;;;;;;;5055833;28;20120;-73
2023/09/15 06:00:35;;;;;;;0.20;0.20;;;;;;;;;;5057739;28;20086;-73
2023/09/15 06:03:02;;;;;;;0.30;0.30;;;;;;;;;;5041298;28;20387;-74
2023/09/15 06:05:27;;;;;;;0.20;0.20;;;;;;;;;;5066657;28;20437;-75
2023/09/15 06:07:53;;;;;;;0.20;0.20;;;;;;;;;;5046187;28;20024;-77
2023/09/15 06:10:28;;;;;;;0.20;0.20;;;;;;;;;;5049005;28;20032;-73
2023/09/15 06:12:59;;;;;;;0.28;0.28;;;;;;;;;;5035067;28;20024;-75
2023/09/15 06:15:25;;;;;;;0.20;0.20;;;;;;;;;;5067974;28;20059;-76
2023/09/15 06:17:51;;;;;;;0.20;0.20;;;;;;;;;;5067829;28;20020;-75
2023/09/15 06:20:16;;;;;;;0.63;0.63;;;;;;;;;;5057302;28;20028;-75
2023/09/15 06:22:42;;;;;;;0.20;0.20;;;;;;;;;;5065901;28;20472;-77
2023/09/15 06:25:08;;;;;;;0.20;0.20;;;;;;;;;;5064841;28;20132;-76
2023/09/15 06:27:33;;;;;;;0.20;0.20;;;;;;;;;;5067641;28;20473;-75
2023/09/15 06:29:59;;;;;;;0.20;0.20;;;;;;;;;;5065947;28;20388;-76
2023/09/15 06:32:24;;;;;;;0.20;0.20;;;;;;;;;;5059435;28;20085;-75
2023/09/15 06:34:50;;;;;;;0.28;0.28;;;;;;;;;;5067432;28;20040;-75
2023/09/15 06:37:16;;;;;;;2.63;1.77;;;;;;;;;;5067265;28;20044;-77
2023/09/15 06:39:42;;;;;;;3.10;1.92;;;;;;;;;;5049763;28;20043;-74
2023/09/15 06:42:08;;;;;;;0.30;0.30;;;;;;;;;;5065154;28;20678;-75
2023/09/15 06:44:39;;;;;;;0.20;0.20;;;;;;;;;;5033298;28;20036;-76
2023/09/15 06:47:06;;;;;;;0.30;0.30;;;;;;;;;;5049587;28;20039;-75
2023/09/15 06:49:32;;;;;;;0.30;0.30;;;;;;;;;;5062087;28;20548;-78
2023/09/15 06:51:58;;;;;;;0.30;0.30;;;;;;;;;;5062344;28;20060;-75
2023/09/15 06:54:23;;;;;;;0.20;0.20;;;;;;;;;;5062445;28;20086;-74
2023/09/15 06:56:50;;;;;;;0.50;0.50;;;;;;;;;;5066017;28;20064;-75
2023/09/15 06:59:16;;;;;;;0.20;0.20;;;;;;;;;;5061448;28;20550;-77
2023/09/15 07:01:41;;;;;;;0.20;0.20;;;;;;;;;;5051345;28;20067;-76
2023/09/15 07:04:07;;;;;;;0.20;0.20;;;;;;;;;;5045493;28;20040;-76
2023/09/15 07:06:33;;;;;;;0.20;0.20;;;;;;;;;;5061254;28;20552;-76
2023/09/15 07:08:59;;;;;;;0.28;0.28;;;;;;;;;;5059715;28;20037;-77
2023/09/15 07:11:25;;;;;;;0.20;0.20;;;;;;;;;;5055659;28;20040;-73
2023/09/15 07:13:50;;;;;;;0.70;0.63;;;;;;;;;;5063267;28;20531;-75
2023/09/15 07:16:16;;;;;;;1.00;1.00;;;;;;;;;;5064530;28;20040;-75
2023/09/15 07:18:43;;;;;;;0.22;0.22;;;;;;;;;;5065266;28;20039;-74
2023/09/15 07:21:08;;;;;;;1.30;1.20;;;;;;;;;;5059078;28;20040;-73
2023/09/15 07:23:34;;;;;;;0.55;0.55;;;;;;;;;;5065644;28;20063;-74
2023/09/15 07:26:01;;;;;;;0.20;0.20;;;;;;;;;;5067086;28;20036;-75
2023/09/15 07:28:26;;;;;;;0.20;0.20;;;;;;;;;;5047600;28;20487;-74
2023/09/15 07:31:00;;;;;;;0.25;0.25;;;;;;;;;;5046345;28;20120;-73
2023/09/15 07:33:27;;;;;;;0.30;0.30;;;;;;;;;;5065830;28;20479;-75
2023/09/15 07:35:59;;;;;;;0.93;0.90;;;;;;;;;;5062955;28;20047;-74
2023/09/15 07:38:25;;;;;;;10.40;2.95;;;;;;;;;;5046937;28;20135;-74
2023/09/15 07:40:51;;;;;;;0.20;0.20;;;;;;;;;;5048529;28;20107;-74
2023/09/15 07:43:16;;;;;;;3.38;2.67;;;;;;;;;;5065866;28;20040;-74
2023/09/15 07:45:42;;;;;;;1.40;0.30;;;;;;;;;;5064533;28;21024;-74
2023/09/15 07:48:07;;;;;;;0.30;0.30;;;;;;;;;;5063525;28;20048;-76
2023/09/15 07:50:33;;;;;;;0.22;0.22;;;;;;;;;;5064391;28;20368;-77
2023/09/15 07:52:59;;;;;;;0.20;0.20;;;;;;;;;;5047548;28;20025;-74
2023/09/15 07:55:25;;;;;;;0.70;0.70;;;;;;;;;;5066343;28;20054;-77
2023/09/15 07:57:50;;;;;;;0.20;0.20;;;;;;;;;;5066551;28;20036;-74
2023/09/15 08:00:16;;;;;;;1.17;0.95;;;;;;;;;;5065514;28;20062;-74
2023/09/15 08:02:42;;;;;;;1.20;0.65;;;;;;;;;;5062566;28;20090;-74
2023/09/15 08:05:08;;;;;;;0.20;0.20;;;;;;;;;;5031686;28;20032;-75
2023/09/15 08:07:33;;;;;;;1.08;1.05;;;;;;;;;;5061968;28;20036;-75
2023/09/15 08:10:01;;;;;;;0.20;0.20;;;;;;;;;;5065818;28;20082;-76
2023/09/15 08:12:27;;;;;;;1.48;1.38;;;;;;;;;;5066555;28;20045;-75
2023/09/15 08:14:53;;;;;;;0.20;0.20;;;;;;;;;;5047070;28;20032;-75
2023/09/15 08:17:19;;;;;;;0.32;0.32;;;;;;;;;;5046549;28;20020;-74
2023/09/15 08:19:45;;;;;;;0.35;0.35;;;;;;;;;;5060569;28;21754;-74
2023/09/15 08:22:11;;;;;;;0.28;0.28;;;;;;;;;;5037039;28;20480;-77
2023/09/15 08:24:37;;;;;;;0.20;0.20;;;;;;;;;;5029942;28;20032;-77
2023/09/15 08:27:03;;;;;;;0.20;0.20;;;;;;;;;;5040345;28;20036;-75
2023/09/15 08:29:29;;;;;;;1.02;1.02;;;;;;;;;;5058450;28;20224;-76
2023/09/15 08:31:54;;;;;;;0.40;0.40;;;;;;;;;;5059628;28;20403;-75
2023/09/15 08:34:20;;;;;;;0.20;0.20;;;;;;;;;;5059656;28;20456;-76
2023/09/15 08:36:46;;;;;;;0.32;0.32;;;;;;;;;;5063625;28;20127;-75
2023/09/15 08:39:12;;;;;;;0.20;0.20;;;;;;;;;;5064240;28;20028;-75
2023/09/15 08:41:47;;;;;;;2.42;1.42;;;;;;;;;;5051647;28;20048;-74
2023/09/15 08:44:16;;;;;;;0.30;0.30;;;;;;;;;;5059229;28;20033;-76
2023/09/15 08:46:41;;;;;;;;;;;;;;;;;;5048219;28;20471;-74
2023/09/15 08:49:08;;;;;;;7.72;2.40;;;;;;;;;;5047843;28;19919;-75
2023/09/15 08:51:34;;;;;;;0.47;0.47;;;;;;;;;;5065522;28;20041;-75
2023/09/15 08:54:01;;;;;;;0.30;0.30;;;;;;;;;;5065273;28;20549;-74
2023/09/15 08:56:27;;;;;;;1.67;1.58;;;;;;;;;;5043128;28;20047;-73
2023/09/15 08:58:55;;;;;;;0.35;0.35;;;;;;;;;;5061776;28;20040;-75
2023/09/15 09:01:21;;;;;;;0.82;0.77;;;;;;;;;;5046896;28;20404;-74
2023/09/15 09:03:49;;;;;;;0.30;0.30;;;;;;;;;;5059191;28;20025;-74
2023/09/15 09:06:16;;;;;;;;;;;;;;;;;;5035765;28;20094;-74
2023/09/15 09:08:45;;;;;;;0.40;0.40;;;;;;;;;;5045594;28;20360;-74
2023/09/15 09:11:11;;;;;;;0.40;0.40;;;;;;;;;;5045257;28;20148;-73
2023/09/15 09:13:38;;;;;;;0.30;0.30;;;;;;;;;;5060584;28;20040;-74
2023/09/15 09:16:10;;;;;;;0.30;0.30;;;;;;;;;;5051796;28;20128;-74
2023/09/15 09:18:38;;;;;;;0.30;0.30;;;;;;;;;;5044370;28;20033;-74
2023/09/15 09:21:05;;;;;;;;;;;;;;;;;;5044106;28;20488;-74
2023/09/15 09:23:34;;;;;;;0.20;0.20;;;;;;;;;;5061261;28;19952;-74
2023/09/15 09:26:10;;;;;;;0.32;0.32;;;;;;;;;;5043496;28;20044;-73
2023/09/15 09:28:38;;;;;;;0.30;0.30;;;;;;;;;;5033347;28;20029;-74
2023/09/15 09:31:05;;;;;;;0.30;0.30;;;;;;;;;;5067608;28;20109;-76
2023/09/15 09:33:31;;;;;;;0.30;0.30;;;;;;;;;;5058753;28;21334;-73
2023/09/15 09:35:57;;;;;;;0.30;0.30;;;;;;;;;;5056850;28;20061;-74
2023/09/15 09:38:25;;;;;;;0.30;0.30;;;;;;;;;;5058422;28;20107;-74
2023/09/15 09:40:52;;;;;;;0.63;0.63;;;;;;;;;;5075077;28;20116;-76
2023/09/15 09:43:19;;;;;;;0.68;0.68;;;;;;;;;;5050408;28;20070;-75
2023/09/15 09:45:49;;;;;;;0.30;0.30;;;;;;;;;;5068683;28;20036;-75
2023/09/15 09:48:16;;;;;;;0.40;0.40;;;;;;;;;;5068158;28;20438;-75
2023/09/15 09:50:42;;;;;;;0.43;0.43;;;;;;;;;;5068302;28;20032;-74
2023/09/15 09:53:09;;;;;;;0.65;0.65;;;;;;;;;;5068357;28;20039;-77
2023/09/15 09:55:35;;;;;;;0.40;0.40;;;;;;;;;;5064268;28;20132;-75
2023/09/15 09:58:09;;;;;;;0.40;0.40;;;;;;;;;;5066121;28;20036;-75
2023/09/15 10:00:36;;;;;;;0.40;0.40;;;;;;;;;;5068005;28;20036;-70
2023/09/15 10:03:02;;;;;;;0.50;0.50;;;;;;;;;;5067980;28;20737;-68
2023/09/15 10:05:30;;;;;;;0.40;0.40;;;;;;;;;;5048442;28;20048;-70
2023/09/15 10:07:56;;;;;;;0.50;0.50;;;;;;;;;;5067533;28;20098;-70
2023/09/15 10:10:23;;;;;;;0.50;0.50;;;;;;;;;;5067644;28;20024;-70
2023/09/15 10:12:49;;;;;;;3.35;1.77;;;;;;;;;;5045692;28;20082;-70
2023/09/15 10:15:15;;;;;;;1.52;1.33;;;;;;;;;;5032535;28;20143;-72
2023/09/15 10:17:41;;;;;;;0.30;0.30;;;;;;;;;;5066618;28;20107;-68
2023/09/15 10:20:07;;;;;;;0.40;0.40;;;;;;;;;;5047511;28;20457;-69
2023/09/15 10:22:33;;;;;;;0.50;0.50;;;;;;;;;;5045804;28;20045;-69
2023/09/15 10:25:00;;;;;;;0.75;0.75;;;;;;;;;;5048134;28;20583;-71
2023/09/15 10:27:29;;;;;;;0.30;0.30;;;;;;;;;;5048219;28;20099;-68
2023/09/15 10:30:06;;;;;;;0.70;0.70;;;;;;;;;;5031584;28;20480;-72
2023/09/15 10:32:37;;;;;;;0.68;0.65;;;;;;;;;;5047170;28;20530;-71
2023/09/15 10:35:03;;;;;;;0.30;0.30;;;;;;;;;;5027650;28;20036;-68
2023/09/15 10:37:29;;;;;;;2.92;1.10;;;;;;;;;;5047338;28;20029;-69
2023/09/15 10:39:59;;;;;;;0.30;0.30;;;;;;;;;;5044703;28;20036;-69
2023/09/15 10:42:26;;;;;;;0.40;0.40;;;;;;;;;;5050593;28;20043;-69
2023/09/15 10:44:52;;;;;;;0.70;0.70;;;;;;;;;;5034836;28;20059;-68
2023/09/15 10:47:18;;;;;;;0.40;0.40;;;;;;;;;;5051270;28;20040;-69
2023/09/15 10:49:50;;;;;;;0.50;0.50;;;;;;;;;;5069032;28;20432;-68
2023/09/15 10:52:16;;;;;;;0.82;0.80;;;;;;;;;;5031440;28;20036;-70
2023/09/15 10:54:42;;;;;;;0.50;0.50;;;;;;;;;;5069056;28;20025;-69
2023/09/15 10:57:08;;;;;;;1.15;1.05;;;;;;;;;;5069085;28;20028;-68
2023/09/15 10:59:35;;;;;;;0.57;0.57;;;;;;;;;;5050843;28;20028;-68
2023/09/15 11:02:01;;;;;;;1.75;0.82;;;;;;;;;;5047369;28;20036;-69
2023/09/15 11:04:28;;;;;;;1.08;0.90;;;;;;;;;;5048801;28;20041;-70
2023/09/15 11:06:54;;;;;;;4.32;2.25;;;;;;;;;;5066984;28;20032;-70
2023/09/15 11:09:20;;;;;;;1.02;0.80;;;;;;;;;;5066644;28;20058;-70
2023/09/15 11:11:47;;;;;;;1.85;0.90;;;;;;;;;;5049388;28;20037;-68
2023/09/15 11:14:14;;;;;;;0.50;0.50;;;;;;;;;;5048128;28;20492;-70
2023/09/15 11:16:42;;;;;;;0.30;0.30;;;;;;;;;;5048862;28;20032;-69
2023/09/15 11:19:09;;;;;;;3.90;1.60;;;;;;;;;;5050069;28;20131;-69
2023/09/15 11:21:34;;;;;;;2.15;1.33;;;;;;;;;;5033514;28;20035;-69
2023/09/15 11:24:00;;;;;;;1.33;0.80;;;;;;;;;;5049531;28;20032;-69
2023/09/15 11:26:26;;;;;;;0.50;0.50;;;;;;;;;;5066568;28;20033;-69
2023/09/15 11:28:53;;;;;;;0.70;0.63;;;;;;;;;;5066671;28;20029;-69
2023/09/15 11:31:19;;;;;;;2.35;1.40;;;;;;;;;;5049098;28;20498;-70
2023/09/15 11:33:46;;;;;;;1.33;0.88;;;;;;;;;;5066541;28;20097;-69
2023/09/15 11:36:13;;;;;;;1.10;0.95;;;;;;;;;;5044308;28;21431;-70
2023/09/15 11:38:39;;;;;;;3.97;2.38;;;;;;;;;;5029718;28;20020;-69
2023/09/15 11:41:06;;;;;;;0.65;0.60;;;;;;;;;;5045829;28;20119;-69
2023/09/15 11:43:32;;;;;;;1.00;0.77;;;;;;;;;;5022617;28;20036;-70
2023/09/15 11:45:59;;;;;;;0.77;0.63;;;;;;;;;;5026637;28;20040;-69
2023/09/15 11:48:25;;;;;;;2.72;1.60;;;;;;;;;;5066818;28;20033;-69
2023/09/15 11:50:53;;;;;;;0.82;0.82;;;;;;;;;;5068148;28;20039;-67
2023/09/15 11:53:23;;;;;;;2.72;1.90;;;;;;;;;;5063416;28;20032;-72
2023/09/15 11:55:51;;;;;;;2.60;2.03;;;;;;;;;;5066478;28;20031;-69
2023/09/15 11:58:18;;;;;;;1.40;0.97;;;;;;;;;;5042317;28;20040;-69
2023/09/15 12:00:43;;;;;;;1.48;0.85;;;;;;;;;;5068305;28;20362;-71
2023/09/15 12:03:09;;;;;;;2.63;1.02;;;;;;;;;;5050366;28;20082;-68
2023/09/15 12:05:35;;;;;;;0.47;0.47;;;;;;;;;;5068009;28;20388;-68
2023/09/15 12:08:01;;;;;;;5.00;1.25;;;;;;;;;;5055794;28;20028;-69
2023/09/15 12:10:26;;;;;;;0.52;0.52;;;;;;;;;;5064394;28;20173;-72
2023/09/15 12:12:58;;;;;;;0.70;0.70;;;;;;;;;;5067910;28;20442;-70
2023/09/15 12:15:25;;;;;;;0.95;0.80;;;;;;;;;;5033487;28;20044;-69
2023/09/15 12:17:52;;;;;;;0.57;0.57;;;;;;;;;;5048730;28;20035;-71
2023/09/15 12:20:21;;;;;;;2.55;1.70;;;;;;;;;;5046514;28;20123;-69
2023/09/15 12:22:47;;;;;;;13.70;3.92;;;;;;;;;;5067172;28;20066;-69
2023/09/15 12:25:16;;;;;;;0.60;0.60;;;;;;;;;;5049856;28;20464;-70
2023/09/15 12:27:43;;;;;;;0.50;0.50;;;;;;;;;;5049787;28;20074;-69
2023/09/15 12:30:10;;;;;;;0.52;0.52;;;;;;;;;;5040151;28;20123;-69
2023/09/15 12:32:36;;;;;;;2.30;0.65;;;;;;;;;;5057975;28;20123;-70
2023/09/15 12:35:08;;;;;;;1.00;0.90;;;;;;;;;;5032169;28;20043;-68
2023/09/15 12:37:34;;;;;;;5.32;0.82;;;;;;;;;;5037906;28;20033;-67
2023/09/15 12:39:59;;;;;;;1.17;1.08;;;;;;;;;;5063874;28;20066;-68
2023/09/15 12:42:25;;;;;;;1.35;1.23;;;;;;;;;;5062903;28;20038;-69
2023/09/15 12:44:50;;;;;;;5.97;1.70;;;;;;;;;;5065971;28;20086;-70
2023/09/15 12:47:16;;;;;;;1.25;1.15;;;;;;;;;;5051819;28;20051;-71
2023/09/15 12:49:41;;;;;;;1.30;0.95;;;;;;;;;;5062819;28;20083;-69
2023/09/15 12:52:07;;;;;;;2.25;1.67;;;;;;;;;;5064099;28;20046;-70
2023/09/15 12:54:33;;;;;;;1.05;0.95;;;;;;;;;;5071735;28;20376;-71
2023/09/15 12:56:59;;;;;;;0.70;0.70;;;;;;;;;;5032285;28;20063;-68
2023/09/15 12:59:25;;;;;;;2.83;1.48;;;;;;;;;;5068432;28;20483;-68
2023/09/15 13:01:51;;;;;;;0.45;0.45;;;;;;;;;;5067385;28;20042;-68
2023/09/15 13:04:16;;;;;;;0.63;0.63;;;;;;;;;;5050574;28;20036;-68
2023/09/15 13:06:42;;;;;;;4.60;1.98;;;;;;;;;;5047697;28;20052;-69
2023/09/15 13:09:09;;;;;;;1.65;0.82;;;;;;;;;;5041428;28;20037;-69
2023/09/15 13:11:36;;;;;;;1.25;1.15;;;;;;;;;;5038493;28;20165;-69
2023/09/15 13:14:02;;;;;;;0.88;0.55;;;;;;;;;;5041936;28;20485;-68
2023/09/15 13:16:28;;;;;;;0.63;0.60;;;;;;;;;;5042869;28;20036;-68
2023/09/15 13:18:54;;;;;;;2.28;1.58;;;;;;;;;;5052056;28;20029;-68
2023/09/15 13:21:20;;;;;;;2.50;1.55;;;;;;;;;;5054859;28;20032;-68
2023/09/15 13:23:46;;;;;;;1.83;0.77;;;;;;;;;;5033593;28;20141;-72
2023/09/15 13:26:11;;;;;;;0.43;0.43;;;;;;;;;;5041448;28;20132;-73
2023/09/15 13:28:37;;;;;;;1.15;0.65;;;;;;;;;;5050609;28;20039;-73
2023/09/15 13:31:03;;;;;;;1.95;1.17;;;;;;;;;;5060732;28;20045;-72
2023/09/15 13:33:29;;;;;;;0.65;0.63;;;;;;;;;;5049755;28;20067;-73
2023/09/15 13:35:55;;;;;;;0.68;0.68;;;;;;;;;;5043745;28;20659;-73
2023/09/15 13:38:21;;;;;;;1.45;1.13;;;;;;;;;;5059685;28;20024;-72
2023/09/15 13:40:47;;;;;;;1.27;1.08;;;;;;;;;;5048435;28;20040;-72
2023/09/15 13:43:14;;;;;;;1.52;1.25;;;;;;;;;;5062565;28;20020;-72
2023/09/15 13:45:48;;;;;;;0.32;0.32;;;;;;;;;;5029665;28;20119;-73
2023/09/15 13:48:15;;;;;;;0.70;0.68;;;;;;;;;;5067609;28;20068;-74
2023/09/15 13:50:42;;;;;;;1.25;1.00;;;;;;;;;;5042946;28;20044;-72
2023/09/15 13:53:08;;;;;;;1.00;0.88;;;;;;;;;;5066077;28;20024;-73
2023/09/15 13:55:34;;;;;;;1.10;0.88;;;;;;;;;;5050892;28;20028;-73
2023/09/15 13:58:00;;;;;;;1.77;1.33;;;;;;;;;;5068466;28;20040;-72
2023/09/15 14:00:25;;;;;;;2.47;1.77;;;;;;;;;;5068554;28;20478;-72
2023/09/15 14:02:51;;;;;;;0.70;0.70;;;;;;;;;;5064483;28;20151;-72
2023/09/15 14:05:17;;;;;;;6.13;1.17;;;;;;;;;;5064597;28;20476;-74
2023/09/15 14:07:43;;;;;;;0.55;0.55;;;;;;;;;;5068320;28;20383;-72
2023/09/15 14:10:09;;;;;;;5.93;2.92;;;;;;;;;;5058333;28;20490;-73
2023/09/15 14:12:34;;;;;;;3.25;2.08;;;;;;;;;;5061449;28;20025;-72
2023/09/15 14:15:00;;;;;;;1.00;0.95;;;;;;;;;;5065342;28;20071;-71
2023/09/15 14:17:27;;;;;;;2.17;1.83;;;;;;;;;;5045782;28;20059;-73
2023/09/15 14:19:55;;;;;;;5.25;1.83;;;;;;;;;;5046916;28;20044;-72
2023/09/15 14:22:22;;;;;;;2.22;1.27;;;;;;;;;;5046022;28;20112;-74
2023/09/15 14:24:50;;;;;;;5.03;1.58;;;;;;;;;;5066433;28;20039;-72
2023/09/15 14:27:15;;;;;;;0.45;0.38;;;;;;;;;;5065677;28;20056;-74
2023/09/15 14:29:43;;;;;;;2.10;1.17;;;;;;;;;;5044271;28;20391;-72
2023/09/15 14:32:09;;;;;;;2.33;1.13;;;;;;;;;;5067028;28;20085;-72
2023/09/15 14:34:34;;;;;;;1.90;1.35;;;;;;;;;;5048740;28;20032;-73
2023/09/15 14:37:00;;;;;;;1.10;1.00;;;;;;;;;;5055103;28;20522;-73
2023/09/15 14:39:26;;;;;;;4.40;2.58;;;;;;;;;;5065646;28;20028;-73